Time;durP1;ratioP1;P1;durP2;ratioP2;P2;SDS_P1;SDS_P2;PMS_P1;PMS_P2;Temp;Humidity;BMP_temperature;BMP_pressure;BME280_temperature;BME280_humidity;BME280_pressure;Samples;Min_cycle;Max_cycle;Signal;HPM_P1;HPM_P2
2022/05/31 00:00:56;;;;;;;2.45;1.13;;;9.10;99.90;;;;;;5076254;28;20083;-67
2022/05/31 00:03:22;;;;;;;1.27;1.15;;;9.10;99.90;;;;;;5088371;28;20067;-67
2022/05/31 00:05:48;;;;;;;1.45;1.30;;;9.20;99.90;;;;;;5075626;28;20421;-67
2022/05/31 00:08:13;;;;;;;2.00;1.00;;;9.20;99.90;;;;;;5092049;28;20082;-67
2022/05/31 00:10:39;;;;;;;4.53;1.40;;;9.30;99.90;;;;;;5071950;28;20462;-67
2022/05/31 00:13:05;;;;;;;3.22;1.00;;;9.30;99.90;;;;;;5070902;28;20443;-67
2022/05/31 00:15:31;;;;;;;3.70;1.40;;;9.30;99.90;;;;;;5092410;28;20477;-67
2022/05/31 00:17:56;;;;;;;5.78;1.60;;;9.30;99.90;;;;;;5095499;28;20084;-67
2022/05/31 00:20:22;;;;;;;2.00;0.95;;;9.30;99.90;;;;;;5088682;28;20397;-67
2022/05/31 00:22:48;;;;;;;2.97;1.02;;;9.30;99.90;;;;;;5087915;28;20036;-67
2022/05/31 00:25:14;;;;;;;1.17;0.82;;;9.20;99.90;;;;;;5068458;28;20047;-67
2022/05/31 00:27:40;;;;;;;2.58;0.98;;;9.20;99.90;;;;;;5068363;28;20062;-67
2022/05/31 00:30:07;;;;;;;5.20;0.93;;;9.20;99.90;;;;;;5074239;28;20032;-67
2022/05/31 00:32:36;;;;;;;1.30;0.82;;;9.10;99.90;;;;;;5091388;28;20036;-67
2022/05/31 00:35:24;;;;;;;3.03;1.10;;;9.10;99.90;;;;;;5091960;28;20502;-67
2022/05/31 00:37:51;;;;;;;2.03;0.82;;;9.10;99.90;;;;;;5091494;28;20035;-67
2022/05/31 00:40:19;;;;;;;5.95;1.83;;;9.10;99.90;;;;;;5071221;28;20047;-67
2022/05/31 00:42:53;;;;;;;3.70;0.75;;;9.00;99.90;;;;;;5087028;28;20032;-67
2022/05/31 00:45:20;;;;;;;2.80;1.40;;;9.00;99.90;;;;;;5094060;28;20498;-67
2022/05/31 00:47:47;;;;;;;2.42;1.10;;;8.90;99.90;;;;;;5089927;28;20027;-67
2022/05/31 00:50:34;;;;;;;1.75;1.10;;;8.90;99.90;;;;;;5074130;28;20043;-67
2022/05/31 00:53:07;;;;;;;1.58;0.95;;;8.90;99.90;;;;;;5094526;28;20538;-67
2022/05/31 00:55:42;;;;;;;1.30;0.93;;;8.80;99.90;;;;;;5092500;28;20513;-67
2022/05/31 00:58:18;;;;;;;3.30;1.00;;;8.80;99.90;;;;;;5072581;28;20043;-67
2022/05/31 01:00:45;;;;;;;1.25;1.15;;;8.80;99.90;;;;;;5066143;28;20509;-67
2022/05/31 01:03:15;;;;;;;1.30;1.20;;;8.70;99.90;;;;;;5089247;28;20421;-67
2022/05/31 01:05:41;;;;;;;2.38;0.98;;;8.70;99.90;;;;;;5094327;28;20397;-67
2022/05/31 01:08:07;;;;;;;2.30;1.25;;;8.70;99.90;;;;;;5073116;28;20311;-67
2022/05/31 01:10:33;;;;;;;1.90;0.93;;;8.70;99.90;;;;;;5069502;28;20040;-67
2022/05/31 01:13:00;;;;;;;2.88;1.17;;;8.60;99.90;;;;;;5078992;28;20048;-67
2022/05/31 01:15:26;;;;;;;1.63;1.10;;;8.70;99.90;;;;;;5073296;28;20097;-67
2022/05/31 01:17:52;;;;;;;2.22;1.35;;;8.60;99.90;;;;;;5066917;28;20113;-67
2022/05/31 01:20:21;;;;;;;1.80;1.48;;;8.60;99.90;;;;;;5071288;28;20196;-67
2022/05/31 01:22:50;;;;;;;1.42;1.15;;;8.60;99.90;;;;;;5066151;28;20037;-67
2022/05/31 01:25:24;;;;;;;2.33;1.27;;;8.50;99.90;;;;;;5093114;28;20040;-67
2022/05/31 01:27:55;;;;;;;1.67;1.23;;;8.50;99.90;;;;;;5067629;28;20044;-67
2022/05/31 01:30:21;;;;;;;1.17;1.00;;;8.50;99.90;;;;;;5073908;28;20496;-67
2022/05/31 01:33:13;;;;;;;2.65;1.38;;;8.50;99.90;;;;;;5071066;28;20036;-67
2022/05/31 01:35:38;;;;;;;1.98;1.40;;;8.50;99.90;;;;;;5087520;28;20036;-67
2022/05/31 01:38:23;;;;;;;2.80;1.63;;;8.60;99.90;;;;;;5068621;28;20047;-67
2022/05/31 01:41:04;;;;;;;3.90;1.60;;;8.50;99.90;;;;;;5071772;28;20093;-67
2022/05/31 01:43:30;;;;;;;2.28;1.63;;;8.50;99.90;;;;;;5091216;28;20031;-67
2022/05/31 01:46:03;;;;;;;2.08;1.58;;;8.60;99.90;;;;;;5071318;28;20043;-67
2022/05/31 01:48:30;;;;;;;4.82;1.50;;;8.60;99.90;;;;;;5097222;28;20089;-67
2022/05/31 01:50:57;;;;;;;2.78;1.35;;;8.60;99.90;;;;;;5093030;28;20085;-67
2022/05/31 01:53:23;;;;;;;1.70;1.27;;;8.60;99.90;;;;;;5091714;28;20382;-67
2022/05/31 01:55:49;;;;;;;1.45;1.35;;;8.70;99.90;;;;;;5076414;28;20035;-67
2022/05/31 01:58:22;;;;;;;4.07;1.60;;;8.70;99.90;;;;;;5076317;28;20516;-67
2022/05/31 02:00:48;;;;;;;2.63;1.67;;;8.70;99.90;;;;;;5078207;28;20044;-67
2022/05/31 02:03:17;;;;;;;4.07;1.50;;;8.70;99.90;;;;;;5104669;27;20545;-67
2022/05/31 02:05:48;;;;;;;3.25;1.50;;;8.70;99.90;;;;;;5080546;28;20074;-67
2022/05/31 02:08:15;;;;;;;1.88;1.50;;;8.70;99.90;;;;;;5086694;28;20046;-67
2022/05/31 02:10:41;;;;;;;4.25;1.73;;;8.60;99.90;;;;;;5075647;28;20032;-67
2022/05/31 02:13:06;;;;;;;4.00;1.40;;;8.60;99.90;;;;;;5091935;28;20504;-67
2022/05/31 02:15:33;;;;;;;4.82;1.83;;;8.70;99.90;;;;;;5074450;28;20050;-67
2022/05/31 02:17:59;;;;;;;2.53;2.28;;;8.70;99.90;;;;;;5092576;28;20447;-67
2022/05/31 02:20:24;;;;;;;1.70;1.50;;;8.60;99.90;;;;;;5074732;28;20039;-67
2022/05/31 02:22:50;;;;;;;2.67;1.70;;;8.70;99.90;;;;;;5091298;28;20063;-67
2022/05/31 02:25:16;;;;;;;3.63;1.58;;;8.70;99.90;;;;;;5104370;27;20520;-67
2022/05/31 02:27:41;;;;;;;4.85;1.98;;;8.70;99.90;;;;;;5068653;28;20448;-67
2022/05/31 02:30:07;;;;;;;2.88;1.67;;;8.70;99.90;;;;;;5095240;28;20071;-67
2022/05/31 02:32:33;;;;;;;3.72;1.70;;;8.70;99.90;;;;;;5096714;28;20035;-67
2022/05/31 02:34:59;;;;;;;3.08;1.70;;;8.70;99.90;;;;;;5092686;28;20035;-67
2022/05/31 02:37:25;;;;;;;3.47;1.95;;;8.60;99.90;;;;;;5077989;28;20107;-67
2022/05/31 02:39:50;;;;;;;3.95;1.52;;;8.80;99.90;;;;;;5074413;28;20036;-67
2022/05/31 02:42:17;;;;;;;2.10;1.40;;;8.70;99.90;;;;;;5071757;28;20048;-67
2022/05/31 02:44:43;;;;;;;2.88;1.80;;;8.70;99.90;;;;;;5075394;28;20032;-67
2022/05/31 02:47:09;;;;;;;2.10;1.90;;;8.70;99.90;;;;;;5097660;28;20089;-67
2022/05/31 02:49:36;;;;;;;1.85;1.73;;;8.80;99.90;;;;;;5069899;28;20032;-67
2022/05/31 02:52:02;;;;;;;3.60;2.03;;;8.80;99.90;;;;;;5075802;28;20079;-67
2022/05/31 02:54:28;;;;;;;2.67;1.95;;;8.80;99.90;;;;;;5075946;28;20528;-67
2022/05/31 02:56:54;;;;;;;3.33;1.90;;;8.80;99.90;;;;;;5094174;28;20036;-67
2022/05/31 02:59:20;;;;;;;3.25;2.00;;;8.90;99.90;;;;;;5090289;28;20119;-67
2022/05/31 03:01:49;;;;;;;4.07;2.22;;;8.90;99.90;;;;;;5073372;28;20339;-67
2022/05/31 03:04:14;;;;;;;4.30;2.05;;;8.90;99.90;;;;;;5077070;28;20043;-67
2022/05/31 03:06:40;;;;;;;3.60;2.08;;;9.00;99.90;;;;;;5073737;28;20037;-67
2022/05/31 03:09:07;;;;;;;2.55;1.88;;;8.90;99.90;;;;;;5088048;28;20032;-67
2022/05/31 03:11:44;;;;;;;3.60;2.08;;;8.90;99.90;;;;;;5075076;28;20048;-67
2022/05/31 03:14:26;;;;;;;5.50;2.20;;;9.00;99.90;;;;;;5074569;28;20035;-67
2022/05/31 03:17:18;;;;;;;2.60;2.33;;;9.00;99.90;;;;;;5094880;28;20071;-67
2022/05/31 03:19:54;;;;;;;5.90;2.83;;;9.00;99.90;;;;;;5072762;28;20086;-67
2022/05/31 03:22:26;;;;;;;2.80;2.25;;;9.10;99.90;;;;;;5072378;28;20036;-67
2022/05/31 03:25:01;;;;;;;3.15;2.30;;;9.10;99.90;;;;;;5055648;28;20160;-67
2022/05/31 03:27:28;;;;;;;2.80;2.35;;;9.10;99.90;;;;;;5092191;28;20489;-67
2022/05/31 03:29:57;;;;;;;3.90;2.33;;;9.10;99.90;;;;;;5104181;27;20036;-67
2022/05/31 03:32:22;;;;;;;2.88;2.67;;;9.10;99.90;;;;;;5072736;28;20047;-67
2022/05/31 03:34:48;;;;;;;2.30;2.10;;;9.20;99.90;;;;;;5067496;28;20493;-67
2022/05/31 03:37:14;;;;;;;2.67;2.42;;;9.20;99.90;;;;;;5073424;28;20494;-67
2022/05/31 03:39:40;;;;;;;2.80;2.28;;;9.20;99.90;;;;;;5071256;28;20513;-67
2022/05/31 03:42:06;;;;;;;3.15;2.90;;;9.20;99.90;;;;;;5079294;28;20518;-67
2022/05/31 03:44:32;;;;;;;3.53;2.63;;;9.20;99.90;;;;;;5075247;28;20095;-67
2022/05/31 03:46:58;;;;;;;8.10;2.88;;;9.20;99.90;;;;;;5071934;28;20081;-67
2022/05/31 03:49:23;;;;;;;2.63;2.42;;;9.20;99.90;;;;;;5088926;28;20035;-67
2022/05/31 03:51:49;;;;;;;3.67;2.30;;;9.30;99.90;;;;;;5092848;28;20581;-67
2022/05/31 03:54:15;;;;;;;4.18;2.22;;;9.30;99.90;;;;;;5070383;28;20494;-67
2022/05/31 03:56:40;;;;;;;2.88;2.20;;;9.30;99.90;;;;;;5094851;28;20114;-67
2022/05/31 03:59:06;;;;;;;3.78;2.05;;;9.30;99.90;;;;;;5104640;27;20040;-67
2022/05/31 04:01:31;;;;;;;2.20;1.90;;;9.30;99.90;;;;;;5086057;28;20516;-67
2022/05/31 04:03:57;;;;;;;3.80;2.67;;;9.40;99.90;;;;;;5077733;28;20032;-67
2022/05/31 04:06:23;;;;;;;3.17;2.70;;;9.30;99.90;;;;;;5075437;28;20157;-67
2022/05/31 04:08:49;;;;;;;3.88;3.45;;;9.30;99.90;;;;;;5101277;27;20044;-67
2022/05/31 04:11:15;;;;;;;3.58;3.28;;;9.40;99.90;;;;;;5075821;28;20049;-67
2022/05/31 04:13:41;;;;;;;3.28;3.03;;;9.40;99.90;;;;;;5090223;28;20210;-67
2022/05/31 04:16:12;;;;;;;3.67;3.10;;;9.50;99.90;;;;;;5099902;27;20051;-67
2022/05/31 04:18:39;;;;;;;4.00;2.90;;;9.50;99.90;;;;;;5073507;28;20043;-67
2022/05/31 04:21:09;;;;;;;3.92;3.63;;;9.50;99.90;;;;;;5086487;28;20506;-67
2022/05/31 04:26:19;;;;;;;2.85;2.63;;;9.60;99.90;;;;;;5070634;28;20358;-67
2022/05/31 04:28:45;;;;;;;5.15;2.63;;;9.60;99.90;;;;;;5072617;28;20386;-67
2022/05/31 04:31:10;;;;;;;4.07;3.17;;;9.60;99.90;;;;;;5087256;28;20040;-67
2022/05/31 04:33:36;;;;;;;3.95;3.15;;;9.60;99.90;;;;;;5068582;28;20043;-67
2022/05/31 04:36:11;;;;;;;3.08;2.55;;;9.70;99.90;;;;;;5069837;28;20598;-67
2022/05/31 04:38:37;;;;;;;4.10;2.72;;;9.70;99.90;;;;;;5090063;28;20106;-67
2022/05/31 04:41:04;;;;;;;5.38;2.85;;;9.70;99.90;;;;;;5055898;28;20405;-67
2022/05/31 04:43:30;;;;;;;4.93;2.95;;;9.80;99.90;;;;;;5094664;28;20555;-67
2022/05/31 04:45:56;;;;;;;5.07;3.20;;;9.80;99.90;;;;;;5089485;28;20405;-67
2022/05/31 04:48:22;;;;;;;4.22;3.25;;;9.80;99.90;;;;;;5092912;28;20032;-67
2022/05/31 04:50:47;;;;;;;3.60;2.67;;;9.90;99.90;;;;;;5070448;28;20796;-67
2022/05/31 04:53:13;;;;;;;3.53;3.10;;;9.90;99.90;;;;;;5086339;28;20043;-67
2022/05/31 04:55:39;;;;;;;4.05;3.00;;;9.90;99.90;;;;;;5088198;28;20032;-67
2022/05/31 04:58:05;;;;;;;4.88;3.63;;;9.90;99.90;;;;;;5071101;28;20040;-67
2022/05/31 05:00:30;;;;;;;4.78;2.83;;;10.00;99.90;;;;;;5071243;28;20042;-67
2022/05/31 05:02:57;;;;;;;4.05;3.25;;;10.00;99.90;;;;;;5073916;28;20067;-67
2022/05/31 05:05:22;;;;;;;3.33;2.67;;;10.00;99.90;;;;;;5088876;28;20055;-67
2022/05/31 05:07:48;;;;;;;4.53;3.00;;;10.00;99.90;;;;;;5072003;28;20258;-67
2022/05/31 05:10:14;;;;;;;3.70;3.00;;;10.00;99.90;;;;;;5070171;28;20062;-67
2022/05/31 05:12:39;;;;;;;3.35;2.88;;;10.00;99.90;;;;;;5068254;28;20177;-67
2022/05/31 05:15:05;;;;;;;5.25;3.35;;;10.10;99.90;;;;;;5067063;28;20466;-67
2022/05/31 05:17:32;;;;;;;4.07;2.83;;;10.20;99.90;;;;;;5079344;28;20041;-67
2022/05/31 05:19:57;;;;;;;5.05;2.70;;;10.20;99.90;;;;;;5055729;28;20050;-67
2022/05/31 05:22:23;;;;;;;4.40;2.70;;;10.30;99.90;;;;;;5068777;28;20048;-67
2022/05/31 05:24:49;;;;;;;10.52;3.05;;;10.20;99.90;;;;;;5072539;28;20396;-67
2022/05/31 05:27:14;;;;;;;3.72;2.92;;;10.20;99.90;;;;;;5075530;28;20032;-67
2022/05/31 05:32:24;;;;;;;6.03;2.97;;;10.30;99.90;;;;;;5072174;28;20347;-66
2022/05/31 05:34:52;;;;;;;5.28;3.20;;;10.30;99.90;;;;;;5090673;28;20080;-67
2022/05/31 05:37:19;;;;;;;2.75;2.50;;;10.30;99.90;;;;;;5096953;28;20036;-67
2022/05/31 05:39:45;;;;;;;5.18;3.10;;;10.40;99.90;;;;;;5096575;27;20032;-67
2022/05/31 05:42:15;;;;;;;3.80;3.00;;;10.40;99.90;;;;;;5073437;28;20036;-67
2022/05/31 05:44:40;;;;;;;4.28;2.60;;;10.40;99.90;;;;;;5075163;28;20463;-67
2022/05/31 05:47:14;;;;;;;5.72;2.88;;;10.50;99.90;;;;;;5065950;28;20135;-67
2022/05/31 05:49:40;;;;;;;5.25;2.72;;;10.50;99.90;;;;;;5054390;28;20051;-67
2022/05/31 05:52:12;;;;;;;4.82;2.80;;;10.50;99.90;;;;;;5091309;28;20122;-67
2022/05/31 05:54:38;;;;;;;6.30;3.13;;;10.80;99.90;;;;;;5075066;28;20039;-67
2022/05/31 05:57:03;;;;;;;3.60;2.55;;;10.60;99.90;;;;;;5078727;28;20429;-67
2022/05/31 05:59:29;;;;;;;4.32;2.80;;;10.70;99.90;;;;;;5091847;28;20071;-67
2022/05/31 06:02:00;;;;;;;4.07;2.80;;;10.70;99.90;;;;;;5091387;28;20035;-67
2022/05/31 06:04:34;;;;;;;2.92;2.42;;;10.70;99.90;;;;;;5088949;28;20381;-67
2022/05/31 06:07:15;;;;;;;3.35;2.97;;;10.80;99.90;;;;;;5058471;28;20081;-67
2022/05/31 06:09:48;;;;;;;5.78;3.08;;;10.80;99.90;;;;;;5072674;28;20126;-67
2022/05/31 06:12:19;;;;;;;3.53;3.22;;;10.80;99.90;;;;;;5097389;28;20127;-67
2022/05/31 06:14:55;;;;;;;3.35;3.08;;;10.80;99.90;;;;;;5089607;28;20073;-67
2022/05/31 06:17:31;;;;;;;4.80;3.00;;;10.90;99.90;;;;;;5074860;28;20040;-67
2022/05/31 06:20:00;;;;;;;4.38;3.40;;;10.90;99.90;;;;;;5069790;28;20036;-68
2022/05/31 06:22:25;;;;;;;3.08;2.70;;;11.00;99.90;;;;;;5102142;27;20051;-67
2022/05/31 06:24:51;;;;;;;5.40;3.05;;;11.00;99.90;;;;;;5076103;28;20044;-67
2022/05/31 06:27:17;;;;;;;4.25;3.22;;;11.10;99.90;;;;;;5090524;28;20028;-67
2022/05/31 06:29:43;;;;;;;4.18;3.05;;;11.20;99.90;;;;;;5067869;28;20911;-67
2022/05/31 06:32:09;;;;;;;5.80;3.22;;;11.20;99.90;;;;;;5091142;28;20062;-67
2022/05/31 06:34:37;;;;;;;6.85;3.50;;;11.30;99.90;;;;;;5088113;28;20032;-67
2022/05/31 06:37:09;;;;;;;3.78;2.90;;;11.30;99.90;;;;;;5102284;27;20485;-67
2022/05/31 06:39:36;;;;;;;3.70;3.25;;;11.40;99.90;;;;;;5076797;28;20051;-67
2022/05/31 06:42:02;;;;;;;3.85;3.00;;;11.50;99.90;;;;;;5076248;28;20048;-67
2022/05/31 06:44:34;;;;;;;3.72;2.88;;;11.60;99.90;;;;;;5074968;28;20035;-67
2022/05/31 06:47:00;;;;;;;4.18;2.80;;;11.70;99.90;;;;;;5087710;28;20142;-67
2022/05/31 06:49:26;;;;;;;5.00;2.35;;;11.80;99.90;;;;;;5093989;28;20123;-67
2022/05/31 06:57:20;;;;;;;3.38;3.08;;;12.10;99.90;;;;;;5092682;28;20036;-67
2022/05/31 06:59:46;;;;;;;5.90;3.25;;;12.20;99.90;;;;;;5090671;28;20054;-67
2022/05/31 07:02:12;;;;;;;5.97;2.45;;;12.30;99.90;;;;;;5091037;28;20085;-67
2022/05/31 07:04:38;;;;;;;3.75;2.80;;;12.40;99.90;;;;;;5090788;28;20036;-67
2022/05/31 07:07:04;;;;;;;3.53;2.33;;;12.50;99.90;;;;;;5071539;28;20123;-67
2022/05/31 07:09:30;;;;;;;2.88;2.25;;;12.70;99.90;;;;;;5091699;28;20973;-67
2022/05/31 07:11:57;;;;;;;4.55;2.25;;;12.90;99.90;;;;;;5075131;28;20048;-67
2022/05/31 07:14:24;;;;;;;4.97;2.80;;;13.10;99.90;;;;;;5075920;28;20105;-67
2022/05/31 07:16:50;;;;;;;3.15;2.20;;;13.50;99.90;;;;;;5092317;28;20065;-67
2022/05/31 07:19:15;;;;;;;7.13;3.28;;;13.80;99.90;;;;;;5073269;28;20120;-67
2022/05/31 07:21:44;;;;;;;6.47;2.22;;;14.10;99.90;;;;;;5075735;28;20047;-67
2022/05/31 07:24:11;;;;;;;9.27;3.08;;;14.40;99.90;;;;;;5087281;28;20408;-67
2022/05/31 07:26:38;;;;;;;3.42;2.50;;;14.90;99.90;;;;;;5091297;28;20028;-67
2022/05/31 07:29:04;;;;;;;4.47;2.08;;;15.20;99.90;;;;;;5108020;27;20044;-67
2022/05/31 07:31:29;;;;;;;4.50;1.95;;;15.50;99.90;;;;;;5073109;28;20229;-67
2022/05/31 07:33:56;;;;;;;4.95;2.22;;;15.90;99.90;;;;;;5072083;28;20036;-67
2022/05/31 07:36:22;;;;;;;5.72;2.00;;;16.30;99.90;;;;;;5101401;27;22238;-68
2022/05/31 07:38:47;;;;;;;5.47;2.42;;;16.30;99.90;;;;;;5102769;27;20039;-68
2022/05/31 07:41:13;;;;;;;4.55;1.95;;;16.50;99.90;;;;;;5089450;28;20040;-68
2022/05/31 07:43:38;;;;;;;4.95;2.15;;;16.60;99.90;;;;;;5087181;28;20040;-67
2022/05/31 07:46:10;;;;;;;4.10;2.20;;;16.70;99.90;;;;;;5086704;28;20036;-67
2022/05/31 07:48:37;;;;;;;3.78;1.90;;;17.00;99.90;;;;;;5088974;28;20478;-68
2022/05/31 07:51:03;;;;;;;3.88;1.85;;;17.00;99.90;;;;;;5089660;28;20059;-67
2022/05/31 07:53:29;;;;;;;4.70;1.85;;;17.10;99.90;;;;;;5088152;28;20089;-67
2022/05/31 07:55:57;;;;;;;4.25;1.85;;;17.00;99.90;;;;;;5087689;28;20029;-68
2022/05/31 07:58:31;;;;;;;4.05;1.60;;;17.20;99.90;;;;;;5066474;28;20075;-68
2022/05/31 08:00:57;;;;;;;4.60;1.55;;;17.30;99.90;;;;;;5093394;28;20047;-68
2022/05/31 08:03:23;;;;;;;3.10;1.63;;;17.40;99.90;;;;;;5072333;28;20047;-68
2022/05/31 08:05:49;;;;;;;4.28;1.92;;;17.50;99.90;;;;;;5064487;28;20215;-67
2022/05/31 08:08:15;;;;;;;6.50;1.63;;;17.70;99.90;;;;;;5071819;28;20845;-68
2022/05/31 08:10:41;;;;;;;3.80;1.60;;;18.00;99.90;;;;;;5074134;28;20401;-68
2022/05/31 08:13:06;;;;;;;3.92;1.63;;;18.20;99.90;;;;;;5073563;28;20394;-68
2022/05/31 08:15:32;;;;;;;2.85;1.67;;;18.40;99.90;;;;;;5102129;27;20503;-68
2022/05/31 08:17:58;;;;;;;4.75;2.60;;;18.50;99.90;;;;;;5073678;28;20052;-68
2022/05/31 08:20:23;;;;;;;4.72;2.38;;;18.50;99.90;;;;;;5069454;28;20078;-68
2022/05/31 08:22:49;;;;;;;4.88;2.15;;;18.40;99.90;;;;;;5089173;28;20039;-68
2022/05/31 08:25:15;;;;;;;6.43;2.30;;;18.60;99.90;;;;;;5056931;28;20079;-68
2022/05/31 08:27:42;;;;;;;6.65;2.78;;;18.70;99.90;;;;;;5090942;28;20504;-68
2022/05/31 08:30:08;;;;;;;7.65;2.58;;;18.70;99.90;;;;;;5070536;28;20052;-68
2022/05/31 08:32:35;;;;;;;5.47;2.50;;;18.70;99.90;;;;;;5102861;27;20131;-68
2022/05/31 08:35:01;;;;;;;6.38;3.65;;;18.70;99.90;;;;;;5067541;28;20402;-68
2022/05/31 08:37:27;;;;;;;6.75;3.33;;;18.80;99.90;;;;;;5070618;28;20394;-67
2022/05/31 08:39:53;;;;;;;8.07;3.03;;;18.80;99.90;;;;;;5090537;28;20028;-68
2022/05/31 08:42:26;;;;;;;10.50;3.00;;;19.00;99.90;;;;;;5086806;28;20044;-68
2022/05/31 08:44:58;;;;;;;5.25;3.47;;;19.10;99.90;;;;;;5089968;28;20063;-68
2022/05/31 08:47:27;;;;;;;4.72;3.10;;;19.10;99.90;;;;;;5073001;28;20661;-67
2022/05/31 08:53:22;;;;;;;5.38;3.03;;;19.10;99.90;;;;;;5072949;28;20052;-68
2022/05/31 08:59:06;;;;;;;7.70;3.25;;;19.00;99.90;;;;;;5091251;28;20045;-67
2022/05/31 09:01:40;;;;;;;5.55;3.33;;;18.90;99.90;;;;;;5094406;28;20044;-68
2022/05/31 09:04:19;;;;;;;4.55;3.08;;;18.90;99.90;;;;;;5061193;28;20443;-68
2022/05/31 09:06:52;;;;;;;6.60;2.95;;;19.10;99.90;;;;;;5088516;28;20493;-68
2022/05/31 09:09:26;;;;;;;4.93;3.10;;;19.20;99.90;;;;;;5098332;28;20039;-68
2022/05/31 09:12:09;;;;;;;5.27;2.70;;;19.20;99.90;;;;;;5069695;28;20044;-68
2022/05/31 09:14:44;;;;;;;5.15;2.97;;;19.00;99.90;;;;;;5089075;28;20036;-68
2022/05/31 09:17:12;;;;;;;4.47;2.47;;;18.70;99.90;;;;;;5069347;28;20051;-68
2022/05/31 09:20:07;;;;;;;5.30;2.92;;;18.60;99.90;;;;;;5084660;28;20420;-68
2022/05/31 09:22:33;;;;;;;7.03;3.00;;;18.40;99.90;;;;;;5090596;28;20032;-68
2022/05/31 09:25:00;;;;;;;9.05;3.22;;;18.40;99.90;;;;;;5070623;28;20124;-68
2022/05/31 09:27:48;;;;;;;5.75;2.83;;;18.40;99.90;;;;;;5092315;28;20044;-68
2022/05/31 09:30:29;;;;;;;8.32;3.28;;;18.20;99.90;;;;;;5074700;28;20126;-68
2022/05/31 09:33:23;;;;;;;6.90;2.53;;;18.30;99.90;;;;;;5071327;28;20035;-68
2022/05/31 09:36:06;;;;;;;4.22;2.63;;;18.40;99.90;;;;;;5087564;28;20032;-68
2022/05/31 09:39:03;;;;;;;5.10;3.22;;;18.40;99.90;;;;;;5072764;28;20089;-68
2022/05/31 09:41:35;;;;;;;6.68;3.40;;;18.30;99.90;;;;;;5089606;28;20040;-68
2022/05/31 09:44:18;;;;;;;10.65;3.90;;;18.20;99.40;;;;;;5088024;28;20378;-68
2022/05/31 09:47:02;;;;;;;3.85;2.70;;;18.00;99.60;;;;;;5070521;28;20039;-68
2022/05/31 09:49:39;;;;;;;9.05;3.30;;;18.00;99.70;;;;;;5087887;28;20036;-68
2022/05/31 09:52:20;;;;;;;9.55;3.13;;;17.90;99.90;;;;;;5090656;28;20405;-68
2022/05/31 09:58:06;;;;;;;6.57;3.60;;;17.60;99.90;;;;;;5071438;28;20043;-68
2022/05/31 10:00:32;;;;;;;9.02;4.07;;;17.40;99.90;;;;;;5071354;28;20036;-68
2022/05/31 10:03:02;;;;;;;5.78;3.97;;;17.10;99.70;;;;;;5091233;28;20075;-68
2022/05/31 10:05:27;;;;;;;12.07;3.88;;;16.90;99.90;;;;;;5086385;28;20501;-68
2022/05/31 10:07:54;;;;;;;10.02;4.40;;;16.90;99.90;;;;;;5059083;28;20036;-68
2022/05/31 10:10:27;;;;;;;7.35;3.70;;;16.80;99.90;;;;;;5093089;28;20569;-68
2022/05/31 10:12:54;;;;;;;7.43;3.88;;;16.80;99.90;;;;;;5097891;28;20051;-68
2022/05/31 10:15:38;;;;;;;7.07;4.22;;;16.80;99.90;;;;;;5076396;28;20071;-67
2022/05/31 10:18:08;;;;;;;6.00;4.25;;;16.90;99.90;;;;;;5092411;28;20058;-68
2022/05/31 10:20:34;;;;;;;6.35;4.10;;;16.90;99.90;;;;;;5070123;28;20040;-68
2022/05/31 10:23:06;;;;;;;6.80;3.50;;;17.00;99.90;;;;;;5074739;28;20037;-68
2022/05/31 10:25:34;;;;;;;8.25;3.75;;;17.10;99.90;;;;;;5074781;28;20700;-68
2022/05/31 10:28:10;;;;;;;5.72;4.55;;;17.20;99.90;;;;;;5071083;28;20498;-67
2022/05/31 10:30:37;;;;;;;6.03;3.92;;;17.30;99.90;;;;;;5069577;28;20097;-68
2022/05/31 10:33:10;;;;;;;4.97;3.53;;;17.40;99.90;;;;;;5102513;27;20139;-68
2022/05/31 10:35:39;;;;;;;6.93;3.08;;;17.40;99.90;;;;;;5092821;28;20036;-68
2022/05/31 10:38:18;;;;;;;5.90;3.13;;;17.50;99.90;;;;;;5095060;28;20032;-67
2022/05/31 10:40:43;;;;;;;6.43;2.85;;;17.70;99.90;;;;;;5091396;28;20043;-67
2022/05/31 10:43:24;;;;;;;6.43;2.65;;;17.80;99.90;;;;;;5072177;28;20040;-68
2022/05/31 10:45:51;;;;;;;7.18;3.08;;;17.80;99.50;;;;;;5068036;28;20486;-67
2022/05/31 10:48:17;;;;;;;5.22;2.72;;;17.80;99.90;;;;;;5064349;28;20028;-68
2022/05/31 10:50:56;;;;;;;9.10;3.03;;;17.90;99.40;;;;;;5094832;28;20081;-68
2022/05/31 10:53:29;;;;;;;4.97;2.42;;;17.70;97.20;;;;;;5073129;28;20131;-68
2022/05/31 10:56:11;;;;;;;5.03;2.20;;;17.60;98.00;;;;;;5092558;28;20038;-68
2022/05/31 10:58:52;;;;;;;6.75;3.13;;;17.60;99.50;;;;;;5077941;28;20188;-68
2022/05/31 11:01:34;;;;;;;5.30;2.78;;;17.50;99.20;;;;;;5070537;28;20051;-68
2022/05/31 11:03:59;;;;;;;8.30;2.92;;;17.60;98.60;;;;;;5068374;28;20035;-67
2022/05/31 11:06:57;;;;;;;6.70;2.83;;;17.60;98.70;;;;;;5095962;28;20040;-67
2022/05/31 11:12:56;;;;;;;5.45;2.67;;;18.20;99.00;;;;;;5092326;28;20044;-68
2022/05/31 11:15:43;;;;;;;4.57;2.90;;;18.30;98.10;;;;;;5072509;28;20054;-67
2022/05/31 11:18:41;;;;;;;5.10;2.42;;;18.60;98.10;;;;;;5087814;28;20513;-67
2022/05/31 11:21:33;;;;;;;6.65;2.25;;;18.50;98.00;;;;;;5085509;28;20054;-67
2022/05/31 11:24:21;;;;;;;4.95;2.60;;;18.30;96.50;;;;;;5070150;28;20048;-67
2022/05/31 11:27:09;;;;;;;6.22;2.80;;;18.30;98.20;;;;;;5077351;28;20127;-68
2022/05/31 11:29:47;;;;;;;7.15;3.03;;;18.30;98.40;;;;;;5080687;28;20108;-67
2022/05/31 11:32:44;;;;;;;3.30;2.22;;;18.30;96.20;;;;;;5088776;28;20078;-68
2022/05/31 11:35:28;;;;;;;3.45;2.20;;;18.20;95.30;;;;;;5066224;28;20063;-68
2022/05/31 11:38:09;;;;;;;3.65;2.33;;;18.10;96.30;;;;;;5091680;28;20122;-68
2022/05/31 11:40:58;;;;;;;5.30;2.70;;;18.20;95.80;;;;;;5104457;27;20036;-68
2022/05/31 11:44:06;;;;;;;3.60;2.33;;;18.10;96.70;;;;;;5091387;28;20111;-68
2022/05/31 11:46:58;;;;;;;6.32;2.30;;;18.10;97.80;;;;;;5091744;28;20042;-67
2022/05/31 11:50:03;;;;;;;4.72;1.85;;;18.10;97.50;;;;;;5084358;28;20030;-67
2022/05/31 11:52:29;;;;;;;5.18;2.53;;;18.10;96.20;;;;;;5020569;28;20050;-67
2022/05/31 11:55:26;;;;;;;4.75;2.55;;;18.20;95.10;;;;;;5077110;28;20123;-67
2022/05/31 11:57:55;;;;;;;3.42;2.60;;;18.20;94.70;;;;;;5086497;28;20044;-67
2022/05/31 12:00:21;;;;;;;4.55;2.58;;;18.10;95.70;;;;;;5088740;28;20036;-68
2022/05/31 12:03:16;;;;;;;5.53;2.60;;;18.10;96.70;;;;;;5069937;28;20047;-68
2022/05/31 12:05:47;;;;;;;7.87;2.77;;;18.10;97.50;;;;;;5071842;28;20040;-67
2022/05/31 12:08:18;;;;;;;4.18;2.70;;;18.10;97.60;;;;;;5091849;28;20088;-68
2022/05/31 12:10:52;;;;;;;5.93;2.47;;;18.10;97.40;;;;;;5088593;28;20028;-68
2022/05/31 12:13:19;;;;;;;6.72;2.42;;;18.10;97.60;;;;;;5067607;28;20040;-67
2022/05/31 12:15:48;;;;;;;4.40;2.38;;;18.10;97.50;;;;;;5082789;28;20047;-68
2022/05/31 12:18:18;;;;;;;4.35;2.85;;;18.20;96.80;;;;;;5087608;28;20217;-68
2022/05/31 12:21:02;;;;;;;3.72;2.60;;;18.20;97.10;;;;;;5067143;28;20168;-68
2022/05/31 12:23:34;;;;;;;5.90;2.80;;;18.20;95.70;;;;;;5106512;27;20127;-68
2022/05/31 12:26:03;;;;;;;4.57;3.15;;;18.20;96.10;;;;;;5089807;28;20076;-67
2022/05/31 12:29:06;;;;;;;5.90;3.22;;;18.20;95.50;;;;;;5064523;28;20122;-68
2022/05/31 12:31:34;;;;;;;8.45;3.30;;;18.20;95.00;;;;;;5088262;28;20035;-68
2022/05/31 12:34:23;;;;;;;6.75;3.45;;;18.20;96.20;;;;;;5071604;28;20036;-68
2022/05/31 12:37:06;;;;;;;9.75;3.83;;;18.20;98.00;;;;;;5057406;28;20548;-68
2022/05/31 12:39:34;;;;;;;8.95;4.07;;;18.20;99.20;;;;;;5074064;28;20036;-68
2022/05/31 12:42:14;;;;;;;8.95;4.35;;;18.20;99.90;;;;;;5090417;28;20044;-68
2022/05/31 12:44:48;;;;;;;12.13;4.38;;;18.20;99.90;;;;;;5064087;28;20039;-68
2022/05/31 12:47:29;;;;;;;13.32;4.90;;;18.40;99.90;;;;;;5084231;28;20713;-68
2022/05/31 12:50:03;;;;;;;11.60;4.85;;;18.50;99.90;;;;;;5103851;27;20074;-68
2022/05/31 12:55:22;;;;;;;7.13;3.60;;;18.60;99.90;;;;;;5072082;28;20149;-68
2022/05/31 13:00:49;;;;;;;10.68;5.32;;;18.60;99.90;;;;;;5087576;28;20066;-67
2022/05/31 13:03:33;;;;;;;8.85;4.88;;;18.60;99.90;;;;;;5075332;28;20077;-68
2022/05/31 13:06:05;;;;;;;14.73;4.68;;;18.50;99.50;;;;;;5088517;28;20394;-67
2022/05/31 13:08:51;;;;;;;8.40;4.30;;;18.40;99.90;;;;;;5087017;28;20036;-67
2022/05/31 13:20:33;;;;;;;10.35;4.10;;;18.20;99.90;;;;;;5070696;28;20131;-68
2022/05/31 13:23:01;;;;;;;5.47;3.63;;;18.20;99.90;;;;;;5085976;28;20051;-68
2022/05/31 13:25:32;;;;;;;8.55;4.53;;;18.00;99.90;;;;;;5088903;28;20548;-68
2022/05/31 13:28:01;;;;;;;10.95;4.60;;;18.00;99.90;;;;;;5090906;28;20036;-68
2022/05/31 13:30:31;;;;;;;7.63;3.90;;;17.80;99.90;;;;;;5083828;28;20044;-68
2022/05/31 13:32:57;;;;;;;9.70;5.07;;;17.70;99.90;;;;;;5089738;28;21654;-67
2022/05/31 13:35:27;;;;;;;6.10;3.80;;;17.70;99.90;;;;;;5105224;28;20478;-67
2022/05/31 13:38:02;;;;;;;7.50;4.35;;;17.60;99.90;;;;;;5090450;28;20040;-67
2022/05/31 13:40:40;;;;;;;10.77;3.45;;;17.60;99.90;;;;;;5071093;28;20044;-68
2022/05/31 13:43:23;;;;;;;5.18;2.92;;;17.40;98.20;;;;;;5089286;28;20181;-67
2022/05/31 13:45:55;;;;;;;5.03;2.90;;;17.40;97.40;;;;;;5080864;28;20040;-67
2022/05/31 13:48:24;;;;;;;4.63;2.92;;;17.30;97.60;;;;;;5088810;28;20059;-67